createdAt,value
2022-09-20T00:01:25.417Z,13.10
2022-09-20T00:03:57.590Z,13.10
2022-09-20T00:06:29.121Z,13.10
2022-09-20T00:08:59.413Z,13.10
2022-09-20T00:11:29.493Z,13.20
2022-09-20T00:13:59.609Z,13.20
2022-09-20T00:16:29.337Z,13.20
2022-09-20T00:19:01.989Z,13.20
2022-09-20T00:21:32.269Z,13.20
2022-09-20T00:24:01.649Z,13.20
2022-09-20T00:26:30.455Z,13.20
2022-09-20T00:28:59.546Z,13.20
2022-09-20T00:31:27.664Z,13.20
2022-09-20T00:34:13.586Z,13.30
2022-09-20T00:36:42.846Z,13.20
2022-09-20T00:39:13.660Z,13.20
2022-09-20T00:41:41.512Z,13.20
2022-09-20T00:44:43.793Z,13.20
2022-09-20T00:47:17.597Z,13.20
2022-09-20T00:49:45.488Z,13.20
2022-09-20T00:52:15.910Z,13.20
2022-09-20T00:54:43.922Z,13.20
2022-09-20T00:57:12.203Z,13.10
2022-09-20T00:59:42.763Z,13.10
2022-09-20T01:02:14.458Z,13.10
2022-09-20T01:04:44.698Z,13.10
2022-09-20T01:07:19.489Z,13.10
2022-09-20T01:09:47.342Z,13.10
2022-09-20T01:12:19.709Z,13.10
2022-09-20T01:14:49.552Z,13.10
2022-09-20T01:17:19.265Z,13.10
2022-09-20T01:19:57.284Z,13.10
2022-09-20T01:22:30.930Z,13.10
2022-09-20T01:25:08.838Z,13.10
2022-09-20T01:27:43.079Z,13.10
2022-09-20T01:30:14.548Z,13.10
2022-09-20T01:32:57.342Z,13.10
2022-09-20T01:35:30.914Z,13.10
2022-09-20T01:38:12.145Z,13.10
2022-09-20T01:40:48.952Z,13.10
2022-09-20T01:43:27.142Z,13.10
2022-09-20T01:45:56.443Z,13.10
2022-09-20T01:48:36.109Z,13.10
2022-09-20T01:51:35.900Z,13.10
2022-09-20T01:54:58.647Z,13.10
2022-09-20T01:57:53.570Z,13.10
2022-09-20T02:00:31.057Z,13.10
2022-09-20T02:03:47.831Z,13.00
2022-09-20T02:06:40.474Z,13.00
2022-09-20T02:09:34.536Z,13.00
2022-09-20T02:12:22.524Z,12.90
2022-09-20T02:14:59.724Z,12.90
2022-09-20T02:17:39.315Z,12.80
2022-09-20T02:20:24.021Z,12.80
2022-09-20T02:23:12.962Z,12.80
2022-09-20T02:25:56.657Z,12.70
2022-09-20T02:28:37.922Z,12.70
2022-09-20T02:31:17.677Z,12.60
2022-09-20T02:34:01.258Z,12.60
2022-09-20T02:36:42.654Z,12.60
2022-09-20T02:39:16.224Z,12.50
2022-09-20T02:41:58.697Z,12.50
2022-09-20T02:44:38.506Z,12.50
2022-09-20T02:47:14.742Z,12.40
2022-09-20T02:49:58.298Z,12.40
2022-09-20T02:52:33.675Z,12.30
2022-09-20T02:55:08.433Z,12.30
2022-09-20T02:57:49.316Z,12.20
2022-09-20T03:00:24.721Z,12.20
2022-09-20T03:03:05.993Z,12.10
2022-09-20T03:05:44.651Z,12.10
2022-09-20T03:08:27.721Z,12.10
2022-09-20T03:11:03.151Z,12.00
2022-09-20T03:13:47.537Z,11.90
2022-09-20T03:16:23.342Z,11.90
2022-09-20T03:19:01.514Z,11.80
2022-09-20T03:21:44.862Z,11.80
2022-09-20T03:24:22.657Z,11.80
2022-09-20T03:26:57.629Z,11.70
2022-09-20T03:29:50.898Z,11.60
2022-09-20T03:32:35.542Z,11.60
2022-09-20T03:35:18.038Z,11.50
2022-09-20T03:38:11.037Z,11.40
2022-09-20T03:41:03.388Z,11.30
2022-09-20T03:43:48.230Z,11.20
2022-09-20T03:46:19.489Z,11.20
2022-09-20T03:49:05.604Z,11.10
2022-09-20T03:51:41.922Z,11.10
2022-09-20T03:55:04.020Z,11.10
2022-09-20T03:58:08.110Z,11.10
2022-09-20T04:00:52.952Z,11.20
2022-09-20T04:03:37.345Z,11.30
2022-09-20T04:06:33.098Z,11.40
2022-09-20T04:09:27.360Z,11.40
2022-09-20T04:12:05.403Z,11.40
2022-09-20T04:14:40.307Z,11.50
2022-09-20T04:17:32.225Z,11.50
2022-09-20T04:20:04.650Z,11.50
2022-09-20T04:22:32.927Z,11.50
2022-09-20T04:25:05.339Z,11.50
2022-09-20T04:27:40.855Z,11.50
2022-09-20T04:30:19.378Z,11.40
2022-09-20T04:32:52.890Z,11.40
2022-09-20T04:35:50.264Z,11.40
2022-09-20T04:38:21.170Z,11.40
2022-09-20T04:41:08.810Z,11.40
2022-09-20T04:44:21.848Z,11.50
2022-09-20T04:47:37.461Z,11.50
2022-09-20T04:50:39.353Z,11.50
2022-09-20T04:53:27.561Z,11.50
2022-09-20T04:55:56.952Z,11.40
2022-09-20T04:58:49.500Z,11.30
2022-09-20T05:01:59.354Z,11.30
2022-09-20T05:05:04.724Z,11.20
2022-09-20T05:08:47.260Z,11.20
2022-09-20T05:11:49.281Z,11.10
2022-09-20T05:14:42.309Z,11.10
2022-09-20T05:17:32.641Z,11.10
2022-09-20T05:20:41.225Z,11.10
2022-09-20T05:23:52.725Z,11.10
2022-09-20T05:26:36.738Z,11.10
2022-09-20T05:29:20.623Z,11.10
2022-09-20T05:32:08.253Z,11.10
2022-09-20T05:34:44.863Z,11.00
2022-09-20T05:37:25.331Z,11.00
2022-09-20T05:40:00.248Z,11.10
2022-09-20T05:42:42.794Z,11.20
2022-09-20T05:45:29.471Z,11.30
2022-09-20T05:48:08.865Z,11.50
2022-09-20T05:50:52.341Z,11.60
2022-09-20T05:53:58.426Z,11.70
2022-09-20T05:56:37.254Z,11.80
2022-09-20T05:59:23.821Z,11.90
2022-09-20T06:05:03.841Z,12.00
2022-09-20T06:07:51.066Z,12.10
2022-09-20T06:11:00.884Z,12.10
2022-09-20T06:14:05.171Z,12.20
2022-09-20T06:16:44.729Z,12.30
2022-09-20T06:19:29.322Z,12.30
2022-09-20T06:22:06.693Z,12.40
2022-09-20T06:24:42.697Z,12.40
2022-09-20T06:27:45.967Z,12.40
2022-09-20T06:30:20.423Z,12.50
2022-09-20T06:33:14.750Z,12.50
2022-09-20T06:35:53.780Z,12.50
2022-09-20T06:39:01.903Z,12.50
2022-09-20T06:41:33.783Z,12.60
2022-09-20T06:44:03.875Z,12.60
2022-09-20T06:49:38.649Z,12.70
2022-09-20T06:52:15.637Z,12.80
2022-09-20T06:54:46.746Z,12.80
2022-09-20T06:57:21.419Z,12.80
2022-09-20T06:59:59.480Z,12.90
2022-09-20T07:02:27.384Z,12.90
2022-09-20T07:08:03.964Z,12.90
2022-09-20T07:10:33.357Z,12.90
2022-09-20T07:13:17.167Z,12.90
2022-09-20T07:15:51.108Z,12.90
2022-09-20T07:18:54.868Z,12.90
2022-09-20T07:21:22.947Z,12.90
2022-09-20T07:23:51.164Z,12.90
2022-09-20T07:29:39.170Z,12.70
2022-09-20T07:32:13.242Z,12.60
2022-09-20T07:34:45.187Z,12.50
2022-09-20T07:37:15.245Z,12.50
2022-09-20T07:39:46.899Z,12.50
2022-09-20T07:42:16.857Z,12.50
2022-09-20T07:44:52.338Z,12.60
2022-09-20T07:47:20.690Z,12.50
2022-09-20T07:52:43.068Z,12.60
2022-09-20T07:55:16.272Z,12.70
2022-09-20T07:57:47.726Z,12.70
2022-09-20T08:00:22.342Z,12.70
2022-09-20T08:03:00.079Z,12.90
2022-09-20T08:05:28.384Z,13.00
2022-09-20T08:08:03.485Z,13.10
2022-09-20T08:10:39.868Z,13.10
2022-09-20T08:16:05.399Z,13.20
2022-09-20T08:18:57.895Z,13.20
2022-09-20T08:21:27.537Z,13.20
2022-09-20T08:23:58.916Z,13.30
2022-09-20T08:26:36.112Z,13.30
2022-09-20T08:29:06.787Z,13.40
2022-09-20T08:31:42.573Z,13.40
2022-09-20T08:37:00.196Z,13.50
2022-09-20T08:42:41.885Z,13.60
2022-09-20T08:45:33.695Z,13.70
2022-09-20T08:48:07.583Z,13.70
2022-09-20T08:50:35.435Z,13.70
2022-09-20T08:53:21.230Z,13.80
2022-09-20T08:55:49.575Z,13.80
2022-09-20T08:58:19.126Z,13.70
2022-09-20T09:00:48.544Z,13.70
2022-09-20T09:03:18.441Z,13.70
2022-09-20T09:05:48.371Z,13.70
2022-09-20T09:08:22.321Z,13.60
2022-09-20T09:10:55.134Z,13.60
2022-09-20T09:13:33.592Z,13.60
2022-09-20T09:16:08.342Z,13.70
2022-09-20T09:18:42.252Z,13.70
2022-09-20T09:21:18.097Z,13.70
2022-09-20T09:27:10.475Z,13.80
2022-09-20T09:30:09.948Z,13.80
2022-09-20T09:35:36.155Z,13.90
2022-09-20T09:38:04.041Z,13.90
2022-09-20T09:40:33.734Z,14.00
2022-09-20T09:43:03.279Z,13.90
2022-09-20T09:45:36.079Z,14.00
2022-09-20T09:48:19.899Z,14.10
2022-09-20T09:50:48.305Z,14.30
2022-09-20T09:53:24.044Z,14.40
2022-09-20T09:56:24.938Z,14.50
2022-09-20T09:59:40.182Z,14.70
2022-09-20T10:02:28.881Z,14.70
2022-09-20T10:05:04.975Z,14.70
2022-09-20T10:07:41.959Z,14.70
2022-09-20T10:10:23.242Z,14.80
2022-09-20T10:13:03.300Z,14.80
2022-09-20T10:15:42.253Z,14.80
2022-09-20T10:18:21.324Z,14.80
2022-09-20T10:21:07.501Z,14.80
2022-09-20T10:24:03.658Z,14.70
2022-09-20T10:26:49.377Z,14.80
2022-09-20T10:29:27.063Z,14.90
2022-09-20T10:32:03.764Z,15.00
2022-09-20T10:35:12.157Z,15.00
2022-09-20T10:38:14.542Z,15.10
2022-09-20T10:41:25.622Z,15.10
2022-09-20T10:44:10.214Z,15.10
2022-09-20T10:47:22.141Z,15.10
2022-09-20T10:50:26.680Z,15.10
2022-09-20T10:53:31.870Z,15.10
2022-09-20T10:56:44.821Z,15.10
2022-09-20T10:59:38.707Z,15.10
2022-09-20T11:02:52.700Z,15.10
2022-09-20T11:05:34.193Z,15.10
2022-09-20T11:08:29.138Z,15.10
2022-09-20T11:11:12.479Z,15.10
2022-09-20T11:14:19.384Z,15.10
2022-09-20T11:16:52.986Z,15.10
2022-09-20T11:19:33.760Z,15.10
2022-09-20T11:22:12.274Z,15.10
2022-09-20T11:24:53.465Z,15.10
2022-09-20T11:27:26.924Z,15.10
2022-09-20T11:30:02.627Z,15.20
2022-09-20T11:32:36.557Z,15.20
2022-09-20T11:35:23.945Z,15.20
2022-09-20T11:38:07.887Z,15.20
2022-09-20T11:40:44.232Z,15.20
2022-09-20T11:43:16.162Z,15.20
2022-09-20T11:45:48.143Z,15.20
2022-09-20T11:48:22.815Z,15.20
2022-09-20T11:51:37.100Z,15.20
2022-09-20T11:54:38.966Z,15.20
2022-09-20T11:57:13.748Z,15.30
2022-09-20T11:59:43.496Z,15.30
2022-09-20T12:02:25.842Z,15.30
2022-09-20T12:04:54.449Z,15.20
2022-09-20T12:07:29.356Z,15.20
2022-09-20T12:10:02.782Z,15.10
2022-09-20T12:12:41.495Z,15.10
2022-09-20T12:15:25.281Z,15.20
2022-09-20T12:18:33.046Z,15.20
2022-09-20T12:21:06.807Z,15.20
2022-09-20T12:24:17.254Z,15.30
2022-09-20T12:26:55.850Z,15.30
2022-09-20T12:30:06.661Z,15.40
2022-09-20T12:32:57.398Z,15.40
2022-09-20T12:36:18.065Z,15.50
2022-09-20T12:39:04.767Z,15.50
2022-09-20T12:41:56.876Z,15.50
2022-09-20T12:44:53.661Z,15.50
2022-09-20T12:47:44.724Z,15.50
2022-09-20T12:50:39.381Z,15.50
2022-09-20T12:53:16.667Z,15.50
2022-09-20T12:55:58.860Z,15.60
2022-09-20T12:58:51.470Z,15.80
2022-09-20T13:05:08.584Z,15.90
2022-09-20T13:07:47.180Z,15.90
2022-09-20T13:10:25.073Z,16.00
2022-09-20T13:12:59.703Z,16.00
2022-09-20T13:15:35.722Z,15.90
2022-09-20T13:18:19.729Z,15.90
2022-09-20T13:20:52.174Z,15.90
2022-09-20T13:23:49.469Z,15.90
2022-09-20T13:26:33.399Z,15.80
2022-09-20T13:29:15.958Z,15.80
2022-09-20T13:31:53.091Z,15.80
2022-09-20T13:34:24.295Z,15.80
2022-09-20T13:37:02.832Z,15.80
2022-09-20T13:39:41.767Z,15.80
2022-09-20T13:42:19.670Z,15.80
2022-09-20T13:44:48.944Z,15.70
2022-09-20T13:47:37.264Z,15.70
2022-09-20T13:50:17.768Z,15.60
2022-09-20T13:53:23.494Z,15.60
2022-09-20T13:56:07.825Z,15.60
2022-09-20T13:58:38.148Z,15.70
2022-09-20T14:01:26.377Z,15.70
2022-09-20T14:04:12.829Z,15.70
2022-09-20T14:06:57.318Z,15.80
2022-09-20T14:09:30.608Z,15.90
2022-09-20T14:12:09.910Z,15.90
2022-09-20T14:15:27.557Z,15.90
2022-09-20T14:17:55.546Z,16.00
2022-09-20T14:20:39.284Z,15.90
2022-09-20T14:26:32.458Z,16.10
2022-09-20T14:29:41.452Z,16.20
2022-09-20T14:32:33.711Z,16.20
2022-09-20T14:35:05.117Z,16.20
2022-09-20T14:38:11.943Z,16.10
2022-09-20T14:41:15.229Z,16.10
2022-09-20T14:43:45.627Z,16.10
2022-09-20T14:46:23.265Z,16.10
2022-09-20T14:49:02.438Z,16.10
2022-09-20T14:51:55.053Z,16.00
2022-09-20T14:54:27.273Z,16.00
2022-09-20T14:57:03.079Z,15.90
2022-09-20T14:59:45.862Z,15.90
2022-09-20T15:02:18.432Z,15.80
2022-09-20T15:05:01.796Z,15.80
2022-09-20T15:07:33.477Z,15.80
2022-09-20T15:10:08.264Z,15.80
2022-09-20T15:12:36.057Z,15.80
2022-09-20T15:15:06.590Z,15.80
2022-09-20T15:17:34.456Z,15.90
2022-09-20T15:20:07.193Z,15.90
2022-09-20T15:25:37.374Z,16.00
2022-09-20T15:28:07.939Z,16.30
2022-09-20T15:30:38.787Z,17.00
2022-09-20T15:33:10.373Z,17.90
2022-09-20T15:35:45.031Z,18.00
2022-09-20T15:41:14.262Z,18.40
2022-09-20T15:43:43.344Z,17.90
2022-09-20T15:46:34.171Z,17.40
2022-09-20T15:49:04.644Z,16.80
2022-09-20T15:54:23.900Z,16.10
2022-09-20T15:57:08.491Z,15.70
2022-09-20T15:59:36.395Z,15.50
2022-09-20T16:02:04.971Z,15.40
2022-09-20T16:04:37.075Z,15.30
2022-09-20T16:07:39.912Z,15.30
2022-09-20T16:10:12.270Z,15.30
2022-09-20T16:12:49.088Z,15.20
2022-09-20T16:15:17.271Z,15.10
2022-09-20T16:20:53.120Z,15.00
2022-09-20T16:23:39.310Z,14.90
2022-09-20T16:26:14.182Z,14.90
2022-09-20T16:28:47.088Z,14.90
2022-09-20T16:31:41.820Z,14.90
2022-09-20T16:37:18.935Z,14.90
2022-09-20T16:39:51.083Z,14.80
2022-09-20T16:45:03.626Z,14.80
2022-09-20T16:47:45.847Z,14.70
2022-09-20T16:50:17.836Z,14.70
2022-09-20T16:52:47.162Z,14.70
2022-09-20T16:55:17.934Z,14.60
2022-09-20T16:57:49.881Z,14.60
2022-09-20T17:00:21.512Z,14.60
2022-09-20T17:02:50.970Z,14.60
2022-09-20T17:05:18.963Z,14.60
2022-09-20T17:07:59.078Z,14.50
2022-09-20T17:11:05.785Z,14.50
2022-09-20T17:13:35.507Z,14.50
2022-09-20T17:16:28.715Z,14.50
2022-09-20T17:18:58.439Z,14.40
2022-09-20T17:21:30.619Z,14.40
2022-09-20T17:24:01.577Z,14.40
2022-09-20T17:27:02.850Z,14.30
2022-09-20T17:29:31.804Z,14.30
2022-09-20T17:34:49.077Z,14.20
2022-09-20T17:37:46.457Z,14.20
2022-09-20T17:40:14.430Z,14.20
2022-09-20T17:42:47.012Z,14.10
2022-09-20T17:45:38.586Z,14.10
2022-09-20T17:48:11.813Z,14.00
2022-09-20T17:51:12.556Z,14.00
2022-09-20T17:53:48.847Z,13.90
2022-09-20T17:56:24.001Z,13.90
2022-09-20T17:58:53.608Z,13.90
2022-09-20T18:01:25.878Z,13.80
2022-09-20T18:03:56.225Z,13.80
2022-09-20T18:06:31.463Z,13.70
2022-09-20T18:09:06.120Z,13.70
2022-09-20T18:11:35.995Z,13.70
2022-09-20T18:14:11.604Z,13.70
2022-09-20T18:16:46.572Z,13.60
2022-09-20T18:19:17.500Z,13.60
2022-09-20T18:21:55.145Z,13.50
2022-09-20T18:24:31.919Z,13.50
2022-09-20T18:27:18.803Z,13.50
2022-09-20T18:30:22.401Z,13.50
2022-09-20T18:38:57.583Z,13.40
2022-09-20T18:41:44.853Z,13.50
2022-09-20T18:44:25.022Z,13.50
2022-09-20T18:46:59.096Z,13.50
2022-09-20T18:49:51.065Z,13.50
2022-09-20T18:52:28.310Z,13.40
2022-09-20T18:54:58.360Z,13.40
2022-09-20T18:57:26.669Z,13.50
2022-09-20T19:00:03.364Z,13.50
2022-09-20T19:03:15.318Z,13.50
2022-09-20T19:08:42.711Z,13.40
2022-09-20T19:11:16.980Z,13.40
2022-09-20T19:14:00.273Z,13.40
2022-09-20T19:16:38.650Z,13.40
2022-09-20T19:19:46.864Z,13.40
2022-09-20T19:22:35.025Z,13.40
2022-09-20T19:25:46.057Z,13.50
2022-09-20T19:28:36.351Z,13.50
2022-09-20T19:31:39.000Z,13.50
2022-09-20T19:34:15.293Z,13.50
2022-09-20T19:37:09.840Z,13.50
2022-09-20T19:40:10.094Z,13.60
2022-09-20T19:42:58.116Z,13.60
2022-09-20T19:46:11.323Z,13.50
2022-09-20T19:54:59.570Z,13.60
2022-09-20T19:57:48.574Z,13.50
2022-09-20T20:00:23.061Z,13.50
2022-09-20T20:02:58.265Z,13.50
2022-09-20T20:05:42.603Z,13.50
2022-09-20T20:08:19.396Z,13.50
2022-09-20T20:11:00.129Z,13.40
2022-09-20T20:13:56.681Z,13.40
2022-09-20T20:16:29.171Z,13.50
2022-09-20T20:19:10.508Z,13.50
2022-09-20T20:21:48.490Z,13.50
2022-09-20T20:24:25.804Z,13.60
2022-09-20T20:26:53.818Z,13.60
2022-09-20T20:29:31.191Z,13.60
2022-09-20T20:31:59.067Z,13.70
2022-09-20T20:34:27.454Z,13.70
2022-09-20T20:37:00.913Z,13.70
2022-09-20T20:39:31.990Z,13.70
2022-09-20T20:42:02.362Z,13.80
2022-09-20T20:44:32.601Z,13.80
2022-09-20T20:47:00.424Z,13.80
2022-09-20T20:49:28.429Z,13.90
2022-09-20T20:51:57.827Z,13.90
2022-09-20T20:54:25.701Z,13.90
2022-09-20T20:56:54.043Z,13.90
2022-09-20T20:59:21.812Z,13.90
2022-09-20T21:01:51.031Z,13.90
2022-09-20T21:04:18.838Z,13.90
2022-09-20T21:06:46.812Z,13.90
2022-09-20T21:09:14.752Z,13.90
2022-09-20T21:11:46.864Z,13.80
2022-09-20T21:14:15.772Z,13.80
2022-09-20T21:16:44.999Z,13.80
2022-09-20T21:19:15.826Z,13.70
2022-09-20T21:21:45.989Z,13.70
2022-09-20T21:24:17.115Z,13.70
2022-09-20T21:26:46.441Z,13.70
2022-09-20T21:29:17.552Z,13.60
2022-09-20T21:31:50.414Z,13.60
2022-09-20T21:34:19.870Z,13.60
2022-09-20T21:36:47.838Z,13.50
2022-09-20T21:39:16.808Z,13.50
2022-09-20T21:41:46.908Z,13.40
2022-09-20T21:44:17.122Z,13.40
2022-09-20T21:46:45.270Z,13.30
2022-09-20T21:49:14.159Z,13.20
2022-09-20T21:51:48.714Z,13.20
2022-09-20T21:54:16.554Z,13.10
2022-09-20T21:56:44.401Z,13.00
2022-09-20T21:59:14.283Z,12.90
2022-09-20T22:01:51.466Z,12.90
2022-09-20T22:04:19.990Z,12.80
2022-09-20T22:06:49.142Z,12.70
2022-09-20T22:09:24.057Z,12.60
2022-09-20T22:12:01.028Z,12.50
2022-09-20T22:14:29.059Z,12.50
2022-09-20T22:16:59.319Z,12.40
2022-09-20T22:19:28.178Z,12.30
2022-09-20T22:21:59.859Z,12.30
2022-09-20T22:24:37.009Z,12.20
2022-09-20T22:27:05.956Z,12.20
2022-09-20T22:29:33.993Z,12.10
2022-09-20T22:32:02.930Z,12.00
2022-09-20T22:34:32.133Z,12.00
2022-09-20T22:37:01.760Z,12.00
2022-09-20T22:39:29.861Z,11.90
2022-09-20T22:42:00.192Z,11.90
2022-09-20T22:47:45.405Z,11.80
2022-09-20T22:50:19.611Z,11.80
2022-09-20T22:53:03.092Z,11.70
2022-09-20T22:55:32.832Z,11.70
2022-09-20T22:58:04.442Z,11.70
2022-09-20T23:00:42.596Z,11.70
2022-09-20T23:03:10.628Z,11.70
2022-09-20T23:05:49.376Z,11.70
2022-09-20T23:08:19.057Z,11.70
2022-09-20T23:10:49.099Z,11.70
2022-09-20T23:13:18.616Z,11.70
2022-09-20T23:15:49.461Z,11.70
2022-09-20T23:18:17.576Z,11.70
2022-09-20T23:20:48.638Z,11.70
2022-09-20T23:23:23.642Z,11.70
2022-09-20T23:25:55.198Z,11.80
2022-09-20T23:28:27.554Z,11.80
2022-09-20T23:30:55.598Z,11.80
2022-09-20T23:33:25.827Z,11.80
2022-09-20T23:35:54.085Z,11.70
2022-09-20T23:38:23.511Z,11.80
2022-09-20T23:40:51.627Z,11.70
2022-09-20T23:43:20.279Z,11.70
2022-09-20T23:45:48.370Z,11.70
2022-09-20T23:48:17.181Z,11.60
2022-09-20T23:50:45.730Z,11.60
2022-09-20T23:53:14.189Z,11.60
2022-09-20T23:55:43.690Z,11.50
2022-09-20T23:58:11.767Z,11.50
